createdAt,value
2019-06-10T00:01:24.711Z,2.47
2019-06-10T00:06:31.075Z,2.80
2019-06-10T00:11:35.468Z,2.43
2019-06-10T00:16:41.550Z,2.83
2019-06-10T00:21:46.377Z,2.90
2019-06-10T00:26:51.271Z,2.50
2019-06-10T00:31:58.266Z,2.60
2019-06-10T00:37:07.268Z,2.67
2019-06-10T00:42:11.556Z,2.63
2019-06-10T00:47:15.645Z,2.90
2019-06-10T00:52:21.305Z,3.03
2019-06-10T00:57:26.197Z,2.83
2019-06-10T01:02:31.893Z,3.37
2019-06-10T01:07:36.453Z,2.90
2019-06-10T01:12:41.073Z,2.80
2019-06-10T01:17:45.596Z,2.60
2019-06-10T01:22:51.598Z,3.07
2019-06-10T01:27:56.376Z,2.97
2019-06-10T01:33:01.210Z,2.90
2019-06-10T01:38:05.933Z,2.80
2019-06-10T01:43:13.978Z,3.00
2019-06-10T01:48:17.927Z,2.97
2019-06-10T01:53:22.533Z,3.20
2019-06-10T01:58:27.085Z,2.97
2019-06-10T02:03:33.326Z,2.77
2019-06-10T02:08:38.817Z,2.67
2019-06-10T02:13:47.458Z,2.80
2019-06-10T02:19:00.050Z,3.17
2019-06-10T02:24:00.989Z,2.97
2019-06-10T02:29:05.674Z,2.70
2019-06-10T02:34:14.809Z,2.83
2019-06-10T02:39:25.851Z,2.47
2019-06-10T02:44:32.595Z,2.60
2019-06-10T02:49:51.537Z,3.03
2019-06-10T02:54:37.967Z,2.90
2019-06-10T02:59:43.535Z,3.70
2019-06-10T03:04:49.618Z,2.73
2019-06-10T03:09:54.153Z,2.77
2019-06-10T03:15:02.158Z,2.90
2019-06-10T03:20:06.868Z,2.47
2019-06-10T03:25:13.239Z,3.00
2019-06-10T03:30:26.336Z,2.50
2019-06-10T03:35:26.870Z,3.03
2019-06-10T03:40:32.804Z,2.90
2019-06-10T03:45:39.071Z,2.67
2019-06-10T03:50:43.581Z,2.47
2019-06-10T03:55:49.595Z,3.60
2019-06-10T04:00:54.117Z,2.70
2019-06-10T04:06:02.278Z,2.87
2019-06-10T04:11:06.221Z,2.97
2019-06-10T04:16:13.089Z,2.70
2019-06-10T04:21:17.919Z,2.80
2019-06-10T04:26:25.217Z,2.90
2019-06-10T04:31:32.824Z,3.00
2019-06-10T04:36:37.987Z,2.77
2019-06-10T04:41:42.872Z,3.10
2019-06-10T04:46:48.920Z,3.50
2019-06-10T04:51:53.436Z,3.10
2019-06-10T04:56:58.639Z,3.33
2019-06-10T05:02:05.659Z,2.90
2019-06-10T05:07:12.580Z,3.00
2019-06-10T05:12:16.870Z,3.03
2019-06-10T05:17:26.282Z,3.03
2019-06-10T05:22:30.605Z,3.80
2019-06-10T05:27:35.165Z,2.97
2019-06-10T05:32:39.714Z,2.90
2019-06-10T05:37:45.909Z,3.40
2019-06-10T05:42:52.754Z,3.30
2019-06-10T05:47:56.722Z,3.20
2019-06-10T05:53:02.437Z,2.80
2019-06-10T05:58:29.372Z,2.67
2019-06-10T06:03:36.886Z,3.57
2019-06-10T06:08:43.252Z,3.50
2019-06-10T06:13:47.858Z,3.30
2019-06-10T06:18:56.410Z,4.13
2019-06-10T06:24:03.920Z,3.97
2019-06-10T06:29:08.277Z,4.43
2019-06-10T06:34:13.720Z,3.93
2019-06-10T06:39:19.909Z,4.30
2019-06-10T06:44:24.426Z,4.30
2019-06-10T06:49:32.451Z,3.90
2019-06-10T06:54:38.139Z,3.37
2019-06-10T06:59:44.549Z,4.80
2019-06-10T07:04:49.068Z,5.70
2019-06-10T07:09:55.193Z,4.83
2019-06-10T07:14:59.910Z,4.80
2019-06-10T07:20:05.985Z,3.87
2019-06-10T07:25:12.364Z,2.87
2019-06-10T07:30:22.998Z,3.67
2019-06-10T07:35:27.232Z,3.50
2019-06-10T07:40:33.511Z,3.33
2019-06-10T07:45:40.837Z,2.77
2019-06-10T07:50:46.426Z,3.40
2019-06-10T07:55:53.399Z,2.97
2019-06-10T08:00:58.576Z,2.63
2019-06-10T08:06:03.528Z,2.73
2019-06-10T08:11:09.556Z,2.23
2019-06-10T08:16:14.114Z,2.80
2019-06-10T08:21:18.691Z,2.60
2019-06-10T08:26:23.413Z,3.00
2019-06-10T08:31:29.402Z,2.23
2019-06-10T08:36:33.918Z,2.23
2019-06-10T08:41:41.136Z,2.67
2019-06-10T08:46:47.263Z,2.63
2019-06-10T08:51:55.345Z,2.07
2019-06-10T08:57:04.381Z,2.87
2019-06-10T09:02:08.261Z,2.50
2019-06-10T09:07:12.816Z,2.00
2019-06-10T09:12:30.451Z,2.50
2019-06-10T09:17:23.613Z,2.43
2019-06-10T09:22:28.124Z,2.93
2019-06-10T09:27:32.860Z,2.70
2019-06-10T09:32:37.461Z,2.90
2019-06-10T09:37:47.483Z,2.60
2019-06-10T09:42:52.057Z,3.07
2019-06-10T09:47:59.655Z,3.67
2019-06-10T09:53:02.839Z,2.20
2019-06-10T09:58:07.050Z,2.50
2019-06-10T10:03:12.316Z,2.73
2019-06-10T10:08:18.093Z,2.53
2019-06-10T10:13:22.642Z,3.13
2019-06-10T10:18:27.165Z,2.70
2019-06-10T10:23:49.591Z,2.73
2019-06-10T10:28:38.989Z,2.60
2019-06-10T10:33:44.298Z,2.83
2019-06-10T10:38:50.729Z,3.13
2019-06-10T10:43:58.055Z,2.77
2019-06-10T10:49:02.667Z,2.37
2019-06-10T10:54:22.417Z,2.60
2019-06-10T10:59:13.733Z,2.47
2019-06-10T11:04:18.296Z,2.33
2019-06-10T11:09:24.546Z,2.63
2019-06-10T11:14:29.381Z,2.13
2019-06-10T11:19:33.918Z,2.30
2019-06-10T11:24:42.053Z,2.40
2019-06-10T11:29:45.865Z,2.00
2019-06-10T11:34:53.597Z,1.93
2019-06-10T11:39:57.369Z,2.37
2019-06-10T11:45:02.906Z,2.43
2019-06-10T11:50:08.214Z,1.70
2019-06-10T11:55:18.799Z,2.10
2019-06-10T12:00:18.998Z,2.47
2019-06-10T12:05:23.703Z,2.40
2019-06-10T12:10:29.510Z,2.30
2019-06-10T12:16:12.738Z,1.63
2019-06-10T12:20:42.682Z,2.37
2019-06-10T12:25:48.070Z,2.57
2019-06-10T12:30:57.862Z,2.53
2019-06-10T12:36:02.135Z,2.17
2019-06-10T12:41:10.047Z,1.70
2019-06-10T12:46:13.808Z,2.07
2019-06-10T12:51:19.461Z,1.97
2019-06-10T12:56:24.109Z,2.23
2019-06-10T13:01:28.866Z,2.40
2019-06-10T13:06:35.222Z,1.83
2019-06-10T13:11:39.810Z,2.57
2019-06-10T13:16:44.333Z,1.90
2019-06-10T13:21:52.941Z,2.00
2019-06-10T13:26:58.717Z,1.60
2019-06-10T13:32:06.104Z,2.47
2019-06-10T13:37:12.557Z,2.40
2019-06-10T13:42:37.870Z,2.20
2019-06-10T13:47:42.980Z,2.00
2019-06-10T13:52:48.376Z,2.10
2019-06-10T13:57:53.385Z,1.60
2019-06-10T14:02:58.063Z,1.87
2019-06-10T14:08:05.311Z,2.10
2019-06-10T14:13:10.855Z,1.60
2019-06-10T14:18:15.624Z,1.70
2019-06-10T14:23:21.993Z,1.80
2019-06-10T14:28:40.105Z,1.80
2019-06-10T14:33:33.609Z,1.90
2019-06-10T14:38:38.121Z,1.90
2019-06-10T14:43:43.175Z,2.03
2019-06-10T14:48:47.677Z,2.17
2019-06-10T14:53:54.130Z,2.40
2019-06-10T14:58:58.696Z,2.20
2019-06-10T15:04:04.118Z,2.20
2019-06-10T15:09:09.485Z,2.20
2019-06-10T15:14:16.193Z,1.90
2019-06-10T15:19:28.008Z,2.10
2019-06-10T15:24:28.929Z,1.67
2019-06-10T15:29:33.450Z,1.53
2019-06-10T15:34:39.353Z,2.20
2019-06-10T15:39:43.859Z,1.97
2019-06-10T15:44:55.178Z,1.90
2019-06-10T15:49:55.989Z,2.23
2019-06-10T15:55:04.137Z,1.90
2019-06-10T16:00:14.299Z,2.00
2019-06-10T16:05:17.793Z,2.20
2019-06-10T16:10:27.476Z,2.00
2019-06-10T16:15:32.885Z,2.00
2019-06-10T16:20:37.013Z,1.70
2019-06-10T16:25:42.770Z,2.20
2019-06-10T16:30:47.294Z,1.97
2019-06-10T16:35:52.880Z,2.23
2019-06-10T16:40:57.465Z,2.10
2019-06-10T16:46:03.590Z,1.80
2019-06-10T16:51:08.114Z,2.07
2019-06-10T16:56:13.022Z,2.13
2019-06-10T17:01:18.344Z,2.17
2019-06-10T17:06:25.548Z,1.80
2019-06-10T17:11:30.560Z,1.80
2019-06-10T17:16:36.171Z,1.80
2019-06-10T17:21:42.186Z,2.40
2019-06-10T17:26:48.135Z,1.93
2019-06-10T17:31:53.112Z,1.97
2019-06-10T17:36:57.918Z,1.97
2019-06-10T17:42:02.529Z,1.80
2019-06-10T17:47:08.141Z,2.10
2019-06-10T17:52:13.061Z,1.83
2019-06-10T17:57:18.271Z,2.10
2019-06-10T18:02:24.284Z,2.27
2019-06-10T18:07:31.992Z,2.40
2019-06-10T18:12:36.406Z,1.90
2019-06-10T18:17:42.593Z,2.00
2019-06-10T18:22:47.353Z,1.80
2019-06-10T18:27:53.065Z,2.07
2019-06-10T18:32:57.606Z,2.70
2019-06-10T18:38:03.271Z,1.77
2019-06-10T18:43:07.800Z,1.93
2019-06-10T18:48:13.884Z,2.37
2019-06-10T18:53:18.409Z,2.50
2019-06-10T18:58:23.499Z,2.20
2019-06-10T19:03:28.397Z,1.80
2019-06-10T19:08:35.922Z,2.07
2019-06-10T19:13:43.275Z,2.20
2019-06-10T19:18:49.877Z,2.03
2019-06-10T19:23:54.849Z,2.00
2019-06-10T19:29:00.669Z,2.03
2019-06-10T19:34:05.216Z,2.10
2019-06-10T19:39:13.194Z,2.20
2019-06-10T19:44:17.940Z,2.37
2019-06-10T19:49:23.860Z,2.40
2019-06-10T19:54:28.378Z,2.30
2019-06-10T19:59:48.947Z,2.17
2019-06-10T20:04:39.807Z,2.00
2019-06-10T20:09:46.274Z,2.20
2019-06-10T20:14:52.926Z,2.30
2019-06-10T20:19:57.197Z,2.33
2019-06-10T20:25:03.784Z,2.20
2019-06-10T20:30:21.567Z,1.80
2019-06-10T20:35:15.633Z,1.80
2019-06-10T20:40:20.234Z,1.80
2019-06-10T20:45:25.818Z,2.40
2019-06-10T20:50:32.373Z,1.83
2019-06-10T20:55:41.283Z,1.70
2019-06-10T21:00:51.011Z,2.03
2019-06-10T21:05:50.112Z,2.13
2019-06-10T21:10:54.969Z,1.73
2019-06-10T21:15:59.568Z,2.03
2019-06-10T21:21:04.091Z,2.00
2019-06-10T21:26:08.674Z,1.90
2019-06-10T21:31:13.197Z,2.03
2019-06-10T21:36:18.962Z,2.27
2019-06-10T21:41:23.494Z,2.17
2019-06-10T21:46:28.040Z,2.40
2019-06-10T21:51:34.659Z,1.67
2019-06-10T21:56:39.916Z,1.87
2019-06-10T22:01:46.069Z,1.73
2019-06-10T22:06:54.569Z,2.57
2019-06-10T22:11:57.429Z,2.37
2019-06-10T22:17:03.019Z,2.93
2019-06-10T22:22:08.137Z,2.50
2019-06-10T22:27:12.988Z,2.50
2019-06-10T22:32:17.681Z,2.50
2019-06-10T22:37:23.774Z,2.90
2019-06-10T22:42:28.472Z,3.13
2019-06-10T22:47:33.002Z,2.97
2019-06-10T22:52:37.530Z,3.00
2019-06-10T22:57:43.951Z,3.07
2019-06-10T23:02:48.382Z,2.67
2019-06-10T23:07:54.798Z,2.40
2019-06-10T23:12:59.759Z,3.10
2019-06-10T23:18:04.366Z,2.93
2019-06-10T23:23:09.280Z,3.13
2019-06-10T23:28:13.810Z,2.33
2019-06-10T23:33:18.483Z,3.53
2019-06-10T23:38:24.034Z,3.17
2019-06-10T23:43:29.297Z,3.50
2019-06-10T23:48:33.838Z,2.80
2019-06-10T23:53:39.303Z,2.53
2019-06-10T23:58:44.069Z,2.80
